Time;durP1;ratioP1;P1;durP2;ratioP2;P2;SDS_P1;SDS_P2;PMS_P1;PMS_P2;Temp;Humidity;BMP_temperature;BMP_pressure;BME280_temperature;BME280_humidity;BME280_pressure;Samples;Min_cycle;Max_cycle;Signal;HPM_P1;HPM_P2
2023/09/17 00:01:12;;;;;;;15.10;7.88;;;;;;;16.53;68.93;100194.81;5003972;28;20049;-46
2023/09/17 00:03:40;;;;;;;13.65;6.88;;;;;;;16.52;69.15;100191.31;5004814;28;20057;-45
2023/09/17 00:06:08;;;;;;;16.05;7.60;;;;;;;16.56;69.28;100194.75;5005241;28;20423;-41
2023/09/17 00:08:35;;;;;;;18.20;7.47;;;;;;;16.58;69.41;100192.94;4996994;28;20046;-46
2023/09/17 00:11:03;;;;;;;18.02;7.70;;;;;;;16.57;69.01;100189.47;5005926;28;20339;-46
2023/09/17 00:13:30;;;;;;;13.90;7.82;;;;;;;16.57;68.73;100197.31;5006578;28;20049;-47
2023/09/17 00:15:58;;;;;;;18.42;8.40;;;;;;;16.56;69.29;100192.13;5005419;28;20057;-48
2023/09/17 00:18:25;;;;;;;14.45;7.28;;;;;;;16.57;69.34;100193.84;5005280;28;20049;-49
2023/09/17 00:20:53;;;;;;;13.05;7.15;;;;;;;16.54;69.26;100193.91;5002221;28;20058;-43
2023/09/17 00:23:20;;;;;;;17.75;8.95;;;;;;;16.52;70.05;100190.50;5004871;28;20070;-47
2023/09/17 00:25:49;;;;;;;17.15;7.65;;;;;;;16.52;69.78;100186.09;5005926;28;20073;-48
2023/09/17 00:28:17;;;;;;;18.55;7.95;;;;;;;16.53;69.79;100181.75;5005862;28;20042;-46
2023/09/17 00:30:46;;;;;;;15.07;7.55;;;;;;;16.54;69.68;100184.31;5004240;28;20104;-47
2023/09/17 00:33:15;;;;;;;16.38;7.20;;;;;;;16.52;70.64;100185.25;5003702;28;20053;-48
2023/09/17 00:35:44;;;;;;;15.40;7.75;;;;;;;16.51;70.64;100187.00;5005190;28;20053;-45
2023/09/17 00:38:13;;;;;;;19.63;7.25;;;;;;;16.47;70.99;100182.75;5005399;28;20073;-46
2023/09/17 00:40:42;;;;;;;16.95;8.32;;;;;;;16.50;71.00;100181.81;5005964;28;20046;-45
2023/09/17 00:43:11;;;;;;;15.10;7.45;;;;;;;16.48;71.03;100181.84;5008945;28;20520;-45
2023/09/17 00:45:43;;;;;;;17.02;8.05;;;;;;;16.51;70.94;100186.16;5008854;28;20054;-45
2023/09/17 00:48:12;;;;;;;15.30;8.43;;;;;;;16.51;70.67;100179.16;5007789;28;20108;-45
2023/09/17 00:50:41;;;;;;;16.70;8.13;;;;;;;16.52;70.79;100182.66;5005323;28;20065;-47
2023/09/17 00:53:10;;;;;;;19.15;8.10;;;;;;;16.51;70.36;100184.41;5008826;28;20072;-52
2023/09/17 00:55:38;;;;;;;14.15;7.35;;;;;;;16.51;70.92;100180.94;5004069;28;20048;-51
2023/09/17 00:58:07;;;;;;;13.90;7.18;;;;;;;16.51;70.79;100183.56;5004609;28;20057;-43
2023/09/17 01:00:38;;;;;;;17.95;7.80;;;;;;;16.49;70.61;100180.09;5001430;28;20077;-49
2023/09/17 01:03:08;;;;;;;15.73;7.95;;;;;;;16.51;71.41;100188.78;5008439;28;20414;-47
2023/09/17 01:05:41;;;;;;;17.67;8.32;;;;;;;16.52;70.72;100187.88;5006375;28;20041;-49
2023/09/17 01:08:10;;;;;;;13.25;7.22;;;;;;;16.53;70.71;100186.97;5008307;28;20049;-45
2023/09/17 01:10:39;;;;;;;15.23;8.10;;;;;;;16.52;70.95;100185.25;5009087;28;20054;-51
2023/09/17 01:13:08;;;;;;;15.45;7.85;;;;;;;16.55;71.25;100190.41;5003988;28;20054;-44
2023/09/17 01:15:35;;;;;;;13.77;7.15;;;;;;;16.56;71.42;100192.13;5004579;28;20156;-51
2023/09/17 01:18:05;;;;;;;14.23;6.70;;;;;;;16.54;71.37;100191.28;5006940;28;20048;-45
2023/09/17 01:20:37;;;;;;;15.82;7.75;;;;;;;16.53;71.04;100186.97;5004146;28;20061;-46
2023/09/17 01:23:24;;;;;;;16.63;8.40;;;;;;;16.48;71.68;100189.69;5008123;28;20049;-50
2023/09/17 01:25:56;;;;;;;14.05;7.40;;;;;;;16.50;71.02;100181.81;5006172;28;20050;-52
2023/09/17 01:28:24;;;;;;;15.43;7.20;;;;;;;16.49;70.91;100180.09;5007523;28;20061;-52
2023/09/17 01:30:50;;;;;;;16.42;7.13;;;;;;;16.50;71.02;100177.47;5008176;28;20160;-51
2023/09/17 01:33:17;;;;;;;13.05;6.55;;;;;;;16.48;71.39;100175.78;5007403;28;20397;-53
2023/09/17 01:35:53;;;;;;;14.57;7.90;;;;;;;16.50;71.81;100171.34;5007864;28;20057;-48
2023/09/17 01:38:26;;;;;;;16.02;7.45;;;;;;;16.48;72.03;100162.72;5005579;28;20062;-47
2023/09/17 01:40:54;;;;;;;12.63;7.35;;;;;;;16.46;71.88;100160.13;5007484;28;20056;-47
2023/09/17 01:43:23;;;;;;;13.88;6.80;;;;;;;16.47;71.61;100155.75;5007970;28;20483;-46
2023/09/17 01:45:50;;;;;;;15.38;7.28;;;;;;;16.43;71.49;100155.84;5004512;28;20060;-50
2023/09/17 01:48:18;;;;;;;15.90;7.00;;;;;;;16.45;71.61;100153.19;5007815;28;20108;-46
2023/09/17 01:50:47;;;;;;;15.02;7.25;;;;;;;16.47;71.88;100150.50;5004529;28;20069;-47
2023/09/17 01:53:15;;;;;;;12.82;6.97;;;;;;;16.46;71.80;100154.91;5007664;28;20722;-46
2023/09/17 01:55:42;;;;;;;18.67;8.63;;;;;;;16.45;71.95;100148.81;5006004;28;20073;-49
2023/09/17 01:58:10;;;;;;;17.90;7.38;;;;;;;16.44;71.94;100136.66;5005778;28;21355;-46
2023/09/17 02:00:38;;;;;;;13.55;6.75;;;;;;;16.43;72.01;100137.53;5004208;28;20074;-46
2023/09/17 02:03:05;;;;;;;12.60;6.47;;;;;;;16.42;72.06;100138.41;5007001;28;20045;-48
2023/09/17 02:05:32;;;;;;;12.88;7.00;;;;;;;16.41;72.01;100134.09;5007472;28;20052;-44
2023/09/17 02:07:59;;;;;;;17.60;7.55;;;;;;;16.39;72.49;100135.03;5006966;28;20629;-50
2023/09/17 02:10:26;;;;;;;15.55;7.47;;;;;;;16.38;72.80;100136.78;5002926;28;20042;-46
2023/09/17 02:12:53;;;;;;;13.60;7.18;;;;;;;16.38;72.36;100136.78;5007211;28;20046;-46
2023/09/17 02:15:20;;;;;;;17.63;7.47;;;;;;;16.37;72.03;100129.84;5007420;28;20050;-47
2023/09/17 02:17:50;;;;;;;13.65;6.43;;;;;;;16.36;72.00;100127.28;5007104;28;20052;-45
2023/09/17 02:20:17;;;;;;;18.27;7.80;;;;;;;16.34;71.52;100127.31;5001817;28;20069;-41
2023/09/17 02:22:43;;;;;;;12.77;6.65;;;;;;;16.33;72.50;100120.38;5007504;28;20050;-52
2023/09/17 02:25:10;;;;;;;18.50;8.27;;;;;;;16.31;71.93;100122.16;5006607;28;20553;-48
2023/09/17 02:27:39;;;;;;;12.70;7.35;;;;;;;16.31;72.55;100114.31;5006927;28;20048;-49
2023/09/17 02:30:06;;;;;;;14.57;7.47;;;;;;;16.27;71.85;100117.91;5002933;28;20046;-49
2023/09/17 02:32:33;;;;;;;13.82;7.45;;;;;;;16.25;71.84;100114.50;5006300;28;20050;-52
2023/09/17 02:35:00;;;;;;;17.70;8.15;;;;;;;16.23;72.55;100117.13;5007244;28;20050;-47
2023/09/17 02:37:27;;;;;;;18.08;8.55;;;;;;;16.21;72.34;100118.91;5007033;28;20045;-48
2023/09/17 02:39:53;;;;;;;13.75;8.23;;;;;;;16.18;72.81;100114.63;5007394;28;20052;-45
2023/09/17 02:42:20;;;;;;;14.75;7.53;;;;;;;16.17;72.46;100120.75;5005487;28;20046;-50
2023/09/17 02:44:47;;;;;;;19.05;7.32;;;;;;;16.16;72.29;100116.44;5005762;28;20046;-49
2023/09/17 02:47:14;;;;;;;13.73;7.95;;;;;;;16.14;73.10;100112.16;5007245;28;20046;-46
2023/09/17 02:49:42;;;;;;;15.10;7.78;;;;;;;16.13;72.56;100111.28;5006306;28;20103;-45
2023/09/17 02:52:09;;;;;;;15.18;7.28;;;;;;;16.12;72.48;100106.09;5005852;28;20042;-50
2023/09/17 02:54:36;;;;;;;21.30;8.85;;;;;;;16.10;73.51;100106.13;5004723;28;20049;-46
2023/09/17 02:57:03;;;;;;;16.65;7.47;;;;;;;16.11;73.02;100089.56;5006528;28;20650;-50
2023/09/17 02:59:33;;;;;;;15.73;6.97;;;;;;;16.12;72.95;100088.69;5006756;28;20057;-50
2023/09/17 03:01:59;;;;;;;15.80;7.95;;;;;;;16.14;72.62;100083.41;5000899;28;20049;-50
2023/09/17 03:04:28;;;;;;;13.50;7.80;;;;;;;16.13;72.93;100079.06;5006378;28;20045;-48
2023/09/17 03:06:55;;;;;;;18.02;8.05;;;;;;;16.11;72.95;100076.50;5004176;28;20042;-50
2023/09/17 03:09:24;;;;;;;13.98;8.40;;;;;;;16.12;72.68;100070.38;5006061;28;20455;-49
2023/09/17 03:11:51;;;;;;;12.63;7.82;;;;;;;16.10;72.95;100072.16;5002290;28;20162;-47
2023/09/17 03:14:19;;;;;;;19.05;8.80;;;;;;;16.11;72.53;100071.25;4999709;28;20057;-45
2023/09/17 03:16:46;;;;;;;17.83;8.48;;;;;;;16.10;73.13;100069.56;5005313;28;20423;-52
2023/09/17 03:19:14;;;;;;;15.40;8.07;;;;;;;16.09;73.02;100065.22;5004819;28;20042;-51
2023/09/17 03:21:41;;;;;;;20.17;8.15;;;;;;;16.08;73.22;100058.31;5004386;28;20141;-45
2023/09/17 03:24:09;;;;;;;15.40;7.60;;;;;;;16.07;72.69;100061.78;5002849;28;20046;-47
2023/09/17 03:26:37;;;;;;;17.17;8.75;;;;;;;16.07;73.09;100059.19;5003129;28;20143;-42
2023/09/17 03:29:05;;;;;;;16.95;7.93;;;;;;;16.05;73.23;100058.38;5006855;28;20049;-51
2023/09/17 03:31:32;;;;;;;16.77;7.88;;;;;;;16.04;73.16;100060.13;5005997;28;20495;-50
2023/09/17 03:33:59;;;;;;;14.80;6.90;;;;;;;16.03;73.11;100060.16;5004637;28;20522;-45
2023/09/17 03:36:26;;;;;;;13.60;8.35;;;;;;;16.03;72.87;100052.31;5005750;28;20048;-45
2023/09/17 03:38:53;;;;;;;12.02;7.38;;;;;;;16.03;73.11;100057.53;5005429;28;20076;-49
2023/09/17 03:41:20;;;;;;;16.65;7.65;;;;;;;16.02;73.55;100055.84;5004432;28;20042;-44
2023/09/17 03:43:47;;;;;;;15.85;7.75;;;;;;;16.00;72.49;100063.72;5002222;28;20068;-47
2023/09/17 03:46:14;;;;;;;16.73;7.80;;;;;;;16.00;72.90;100060.22;5005716;28;20108;-49
2023/09/17 03:48:40;;;;;;;14.10;7.55;;;;;;;15.99;73.00;100063.75;5005721;28;20080;-44
2023/09/17 03:51:08;;;;;;;15.23;6.57;;;;;;;15.98;73.09;100059.41;5006188;28;20038;-47
2023/09/17 03:53:35;;;;;;;12.40;6.32;;;;;;;15.98;73.52;100056.81;5005664;28;20053;-47
2023/09/17 03:56:03;;;;;;;19.65;7.05;;;;;;;15.97;72.90;100055.09;5003597;28;20046;-48
2023/09/17 03:58:30;;;;;;;14.07;6.68;;;;;;;15.98;73.55;100054.19;5004629;28;20052;-46
2023/09/17 04:00:57;;;;;;;14.55;7.10;;;;;;;15.96;72.92;100051.63;5005968;28;20096;-44
2023/09/17 04:03:25;;;;;;;12.63;6.85;;;;;;;15.94;73.37;100049.00;5005239;28;20053;-46
2023/09/17 04:05:52;;;;;;;15.20;8.10;;;;;;;15.94;72.95;100049.00;5005499;28;20518;-50
2023/09/17 04:08:18;;;;;;;17.05;7.55;;;;;;;15.91;73.00;100043.84;5005654;28;20045;-49
2023/09/17 04:10:45;;;;;;;16.55;7.57;;;;;;;15.90;73.23;100042.16;5004674;28;20060;-46
2023/09/17 04:13:12;;;;;;;11.88;6.95;;;;;;;15.89;73.27;100045.66;5005174;28;20041;-45
2023/09/17 04:15:39;;;;;;;14.88;7.50;;;;;;;15.89;72.71;100050.03;5005197;28;20053;-46
2023/09/17 04:18:06;;;;;;;17.38;7.75;;;;;;;15.86;73.23;100040.50;5008430;28;20050;-49
2023/09/17 04:20:33;;;;;;;15.77;8.43;;;;;;;15.85;72.71;100043.16;5004552;28;20133;-47
2023/09/17 04:22:59;;;;;;;16.02;7.20;;;;;;;15.84;72.46;100046.69;5007500;28;20049;-47
2023/09/17 04:25:26;;;;;;;18.15;8.07;;;;;;;15.80;72.50;100048.50;5005058;28;20056;-45
2023/09/17 04:27:54;;;;;;;15.32;8.23;;;;;;;15.76;73.27;100039.00;5009331;28;20054;-44
2023/09/17 04:30:21;;;;;;;14.02;7.18;;;;;;;15.75;72.75;100047.75;5009413;28;20053;-44
2023/09/17 04:32:50;;;;;;;15.98;8.65;;;;;;;15.73;73.24;100044.31;5007518;28;20054;-51
2023/09/17 04:35:17;;;;;;;16.52;7.88;;;;;;;15.71;72.88;100046.97;5006988;28;20081;-50
2023/09/17 04:37:47;;;;;;;16.38;8.30;;;;;;;15.70;72.96;100039.19;5007295;28;20050;-47
2023/09/17 04:40:14;;;;;;;16.70;8.05;;;;;;;15.66;73.51;100039.25;5008128;28;20511;-47
2023/09/17 04:42:43;;;;;;;19.48;8.15;;;;;;;15.66;72.93;100039.25;5004942;28;20080;-49
2023/09/17 04:45:10;;;;;;;17.45;8.50;;;;;;;15.64;73.49;100038.41;5008834;28;20060;-48
2023/09/17 04:47:38;;;;;;;24.73;7.78;;;;;;;15.61;72.88;100040.25;5003557;28;20050;-44
2023/09/17 04:50:08;;;;;;;14.57;8.77;;;;;;;15.60;73.44;100033.31;5008136;28;20049;-50
2023/09/17 04:52:36;;;;;;;20.48;8.50;;;;;;;15.57;73.07;100034.22;5008255;28;20136;-45
2023/09/17 04:55:05;;;;;;;17.65;8.13;;;;;;;15.55;74.06;100036.03;5008748;28;20542;-47
2023/09/17 04:57:31;;;;;;;19.58;8.02;;;;;;;15.53;73.73;100027.38;5008744;28;20054;-50
2023/09/17 05:00:00;;;;;;;16.95;8.95;;;;;;;15.51;73.49;100029.19;5008912;28;20491;-43
2023/09/17 05:02:27;;;;;;;16.92;8.07;;;;;;;15.49;73.34;100041.38;5008158;28;20565;-50
2023/09/17 05:04:54;;;;;;;15.20;7.90;;;;;;;15.49;73.59;100030.94;5011926;28;20081;-47
2023/09/17 05:07:21;;;;;;;20.67;8.18;;;;;;;15.47;73.89;100028.38;5009094;28;20061;-46
2023/09/17 05:09:48;;;;;;;17.42;7.43;;;;;;;15.46;74.03;100020.56;5008898;28;20057;-45
2023/09/17 05:12:15;;;;;;;21.15;8.43;;;;;;;15.45;73.56;100034.53;5007797;28;20076;-46
2023/09/17 05:14:42;;;;;;;14.35;7.75;;;;;;;15.41;74.13;100026.75;5008429;28;20515;-46
2023/09/17 05:17:09;;;;;;;16.63;8.05;;;;;;;15.39;73.78;100028.56;5003971;28;20057;-50
2023/09/17 05:19:36;;;;;;;12.88;8.20;;;;;;;15.38;74.02;100034.69;5007500;28;20064;-52
2023/09/17 05:22:03;;;;;;;17.67;8.30;;;;;;;15.36;73.64;100031.25;5007828;28;20351;-46
2023/09/17 05:24:29;;;;;;;15.52;8.15;;;;;;;15.34;73.71;100035.66;5007386;28;20049;-46
2023/09/17 05:26:56;;;;;;;18.30;8.30;;;;;;;15.33;73.78;100040.91;5005511;28;20050;-51
2023/09/17 05:29:23;;;;;;;18.13;9.25;;;;;;;15.32;73.53;100039.16;5007799;28;20173;-46
2023/09/17 05:31:50;;;;;;;17.90;8.32;;;;;;;15.28;74.22;100041.88;5007543;28;20462;-44
2023/09/17 05:34:19;;;;;;;16.33;7.70;;;;;;;15.28;73.95;100041.00;5008676;28;20056;-47
2023/09/17 05:36:46;;;;;;;16.42;8.60;;;;;;;15.27;73.48;100031.47;5007864;28;20096;-46
2023/09/17 05:39:13;;;;;;;14.27;7.88;;;;;;;15.27;73.83;100026.25;5007267;28;20089;-45
2023/09/17 05:41:39;;;;;;;15.63;8.02;;;;;;;15.25;74.02;100028.88;5008171;28;20046;-50
2023/09/17 05:44:06;;;;;;;19.80;9.25;;;;;;;15.23;74.75;100027.22;5008427;28;20046;-49
2023/09/17 05:46:33;;;;;;;17.05;8.60;;;;;;;15.22;73.91;100022.88;5007729;28;20896;-51
2023/09/17 05:49:00;;;;;;;16.60;7.07;;;;;;;15.19;73.92;100018.56;5007330;28;20103;-51
2023/09/17 05:51:27;;;;;;;18.33;7.45;;;;;;;15.19;74.13;100020.34;5004660;28;20623;-49
2023/09/17 05:53:54;;;;;;;20.33;8.88;;;;;;;15.18;73.92;100016.00;5007141;28;20395;-50
2023/09/17 05:56:20;;;;;;;19.63;8.85;;;;;;;15.19;74.02;100018.56;5007716;28;20675;-52
2023/09/17 05:58:47;;;;;;;18.52;8.13;;;;;;;15.20;74.01;100027.28;5006081;28;20049;-52
2023/09/17 06:01:14;;;;;;;17.70;7.63;;;;;;;15.19;73.76;100017.75;5008073;28;20100;-47
2023/09/17 06:03:41;;;;;;;17.25;8.27;;;;;;;15.20;74.12;100024.66;5007789;28;20050;-49
2023/09/17 06:06:08;;;;;;;18.88;8.38;;;;;;;15.24;74.17;100031.53;5007249;28;20214;-47
2023/09/17 06:08:35;;;;;;;21.00;8.70;;;;;;;15.25;74.16;100025.41;5007373;28;20078;-48
2023/09/17 06:11:01;;;;;;;16.83;8.07;;;;;;;15.27;74.16;100021.03;5006728;28;20054;-47
2023/09/17 06:13:28;;;;;;;18.88;7.88;;;;;;;15.29;73.95;100014.88;5003296;28;20050;-45
2023/09/17 06:15:55;;;;;;;22.90;9.05;;;;;;;15.33;74.54;100007.81;5007635;28;20057;-47
2023/09/17 06:18:22;;;;;;;19.40;8.57;;;;;;;15.36;74.22;100012.97;5006731;28;20049;-48
2023/09/17 06:20:49;;;;;;;20.38;8.65;;;;;;;15.40;74.44;100012.00;5001390;28;20136;-47
2023/09/17 06:23:16;;;;;;;21.13;8.80;;;;;;;15.44;74.52;100006.72;5006691;28;20064;-46
2023/09/17 06:25:43;;;;;;;16.38;8.43;;;;;;;15.47;74.52;100006.66;5005456;28;20042;-44
2023/09/17 06:28:10;;;;;;;16.98;9.15;;;;;;;15.52;74.08;99999.56;5007116;28;20045;-44
2023/09/17 06:30:37;;;;;;;15.65;7.13;;;;;;;15.55;74.38;99989.94;5007092;28;20129;-45
2023/09/17 06:33:04;;;;;;;18.92;8.70;;;;;;;15.58;74.27;99994.22;5004215;28;20396;-44
2023/09/17 06:35:31;;;;;;;16.55;8.00;;;;;;;15.63;73.99;100001.91;5006876;28;20046;-48
2023/09/17 06:37:58;;;;;;;17.27;9.05;;;;;;;15.66;74.14;100004.44;5006426;28;20725;-46
2023/09/17 06:40:25;;;;;;;16.00;8.35;;;;;;;15.68;74.03;99997.44;5005971;28;20483;-51
2023/09/17 06:42:52;;;;;;;13.27;7.25;;;;;;;15.70;74.09;99994.81;5006399;28;20092;-55
2023/09/17 06:45:19;;;;;;;18.48;7.65;;;;;;;15.72;74.35;99995.59;5007079;28;20050;-49
2023/09/17 06:47:47;;;;;;;14.48;7.40;;;;;;;15.75;74.12;99990.31;5006935;28;20058;-47
2023/09/17 06:50:14;;;;;;;16.35;8.50;;;;;;;15.76;74.08;99994.63;5006357;28;20052;-47
2023/09/17 06:52:41;;;;;;;16.92;9.07;;;;;;;15.79;73.95;99997.16;5007093;28;20060;-45
2023/09/17 06:55:08;;;;;;;16.67;8.63;;;;;;;15.85;74.02;99994.41;5007338;28;20590;-44
2023/09/17 06:57:35;;;;;;;21.55;9.10;;;;;;;15.87;74.30;100000.44;5005720;28;20056;-49
2023/09/17 07:00:06;;;;;;;21.02;8.35;;;;;;;15.91;74.43;100002.06;5005082;28;20700;-47
2023/09/17 07:02:33;;;;;;;14.38;7.38;;;;;;;15.97;73.95;100008.09;5003616;28;20061;-49
2023/09/17 07:05:03;;;;;;;16.30;7.40;;;;;;;16.03;74.32;100005.28;5006779;28;20062;-53
2023/09/17 07:07:30;;;;;;;13.30;7.00;;;;;;;16.10;75.13;100005.97;5006282;28;20056;-50
2023/09/17 07:09:57;;;;;;;17.92;7.88;;;;;;;16.17;74.46;100011.03;5006143;28;20037;-48
2023/09/17 07:12:24;;;;;;;15.80;8.60;;;;;;;16.25;74.28;99999.50;5005865;28;20049;-45
2023/09/17 07:14:51;;;;;;;17.48;8.38;;;;;;;16.43;73.65;100009.47;5006451;28;20074;-51
2023/09/17 07:17:18;;;;;;;13.52;6.60;;;;;;;16.61;73.79;100012.44;5006019;28;20104;-50
2023/09/17 07:19:44;;;;;;;14.93;8.18;;;;;;;16.76;73.08;100008.56;5004957;28;20052;-49
2023/09/17 07:22:14;;;;;;;14.70;8.10;;;;;;;16.85;73.06;100009.19;5006546;28;20057;-53
2023/09/17 07:24:42;;;;;;;13.30;7.30;;;;;;;16.88;73.45;100009.94;5005252;28;20520;-51
2023/09/17 07:27:09;;;;;;;17.08;7.38;;;;;;;16.89;72.80;100009.03;5004681;28;20078;-44
2023/09/17 07:29:35;;;;;;;11.98;6.75;;;;;;;16.85;72.37;100011.78;5006433;28;20053;-47
2023/09/17 07:32:03;;;;;;;13.55;8.18;;;;;;;16.83;73.13;100001.38;5002188;28;20076;-53
2023/09/17 07:34:31;;;;;;;14.18;7.15;;;;;;;16.85;72.88;99999.56;5004704;28;20054;-42
2023/09/17 07:36:59;;;;;;;13.15;6.72;;;;;;;16.94;72.54;99994.06;5004381;28;20547;-50
2023/09/17 07:39:26;;;;;;;15.25;7.45;;;;;;;17.13;72.72;99996.16;5003204;28;20050;-47
2023/09/17 07:41:53;;;;;;;12.40;7.35;;;;;;;17.43;71.79;99993.44;4999408;28;20056;-50
2023/09/17 07:44:20;;;;;;;17.25;7.55;;;;;;;17.67;72.29;99977.81;5004361;28;20532;-49
2023/09/17 07:46:47;;;;;;;15.35;6.25;;;;;;;18.00;71.82;99987.22;5004098;28;20634;-47
2023/09/17 07:49:14;;;;;;;12.77;7.45;;;;;;;18.23;70.63;99975.97;5000072;28;20447;-50
2023/09/17 07:51:41;;;;;;;13.82;6.45;;;;;;;18.39;69.89;99972.78;5007343;28;20068;-48
2023/09/17 07:54:08;;;;;;;11.68;6.40;;;;;;;18.56;70.01;99979.16;5010559;28;20053;-48
2023/09/17 07:56:35;;;;;;;14.02;7.28;;;;;;;18.85;69.74;99977.22;5009544;28;20041;-52
2023/09/17 07:59:03;;;;;;;15.27;6.20;;;;;;;19.03;68.82;99980.91;5009138;28;20730;-48
2023/09/17 08:01:30;;;;;;;12.10;6.38;;;;;;;18.98;68.24;99975.81;5007423;28;20510;-51
2023/09/17 08:03:57;;;;;;;13.10;6.90;;;;;;;18.89;68.59;99968.31;5005612;28;20372;-50
2023/09/17 08:06:25;;;;;;;11.05;6.05;;;;;;;18.73;68.36;99963.66;5007639;28;20417;-54
2023/09/17 08:08:52;;;;;;;11.23;6.93;;;;;;;18.60;68.52;99967.66;5008744;28;20103;-53
2023/09/17 08:11:19;;;;;;;12.15;6.32;;;;;;;18.48;69.00;99967.19;5009694;28;20081;-51
2023/09/17 08:13:47;;;;;;;11.27;6.53;;;;;;;18.40;69.45;99971.88;5009273;28;20499;-44
2023/09/17 08:16:15;;;;;;;11.40;6.32;;;;;;;18.31;68.62;99961.72;5009990;28;20491;-52
2023/09/17 08:18:42;;;;;;;11.95;6.70;;;;;;;18.27;69.05;99966.22;5008953;28;20092;-49
2023/09/17 08:21:09;;;;;;;11.07;5.65;;;;;;;18.26;68.56;99968.88;5005875;28;20045;-46
2023/09/17 08:23:35;;;;;;;14.43;6.72;;;;;;;18.22;68.88;99968.16;5007196;28;20038;-51
2023/09/17 08:26:04;;;;;;;14.90;5.95;;;;;;;18.23;69.04;99959.38;5008734;28;20583;-47
2023/09/17 08:28:31;;;;;;;9.43;5.68;;;;;;;18.17;69.13;99955.19;5009132;28;20053;-50
2023/09/17 08:30:58;;;;;;;12.43;6.35;;;;;;;18.17;68.13;99957.81;5008785;28;20112;-49
2023/09/17 08:33:25;;;;;;;9.43;5.53;;;;;;;18.11;67.86;99956.28;5008803;28;20052;-46
2023/09/17 08:35:51;;;;;;;11.70;6.43;;;;;;;18.12;68.16;99951.91;5008902;28;20056;-47
2023/09/17 08:38:19;;;;;;;11.90;5.97;;;;;;;18.16;67.67;99948.25;5009310;28;20050;-48
2023/09/17 08:40:47;;;;;;;9.68;5.88;;;;;;;18.22;68.41;99942.81;5008273;28;20050;-52
2023/09/17 08:43:15;;;;;;;11.23;5.95;;;;;;;18.28;68.09;99946.09;5009522;28;20048;-42
2023/09/17 08:45:42;;;;;;;10.75;6.22;;;;;;;18.23;67.61;99947.13;5009367;28;20056;-50
2023/09/17 08:48:09;;;;;;;8.88;5.70;;;;;;;18.31;67.22;99951.25;5008368;28;20060;-47
2023/09/17 08:50:37;;;;;;;11.13;5.90;;;;;;;18.34;67.76;99940.66;5005795;28;20042;-48
2023/09/17 08:53:07;;;;;;;10.35;5.30;;;;;;;18.38;67.51;99937.00;5005594;28;20502;-52
2023/09/17 08:55:34;;;;;;;9.70;5.22;;;;;;;18.41;67.29;99942.09;5009708;28;20053;-49
2023/09/17 08:58:14;;;;;;;10.00;5.82;;;;;;;18.48;67.13;99937.50;5005201;28;20144;-50
2023/09/17 09:00:51;;;;;;;7.93;5.70;;;;;;;18.58;66.61;99932.78;5008844;28;20402;-50
2023/09/17 09:03:22;;;;;;;9.32;7.05;;;;;;;18.81;67.05;99928.41;5005308;28;20096;-49
2023/09/17 09:05:50;;;;;;;7.80;5.20;;;;;;;19.09;66.23;99927.34;5006309;28;20068;-47
2023/09/17 09:08:17;;;;;;;10.43;5.80;;;;;;;19.26;65.69;99919.59;5008309;28;20050;-49
2023/09/17 09:10:44;;;;;;;10.00;5.15;;;;;;;19.44;65.27;99922.41;5008443;28;20054;-49
2023/09/17 09:13:12;;;;;;;12.75;5.47;;;;;;;19.51;65.21;99915.97;5009049;28;20575;-47
2023/09/17 09:15:40;;;;;;;9.82;5.85;;;;;;;19.47;63.94;99917.03;5008288;28;20053;-51
2023/09/17 09:18:08;;;;;;;13.23;6.15;;;;;;;19.53;64.17;99916.75;5008654;28;20041;-50
2023/09/17 09:20:37;;;;;;;11.85;6.47;;;;;;;19.68;64.07;99909.13;5004695;28;20461;-46
2023/09/17 09:23:05;;;;;;;10.75;6.15;;;;;;;19.69;63.40;99908.22;4999827;28;20046;-45
2023/09/17 09:25:34;;;;;;;7.00;4.80;;;;;;;19.62;62.78;99907.63;5006637;28;20054;-51
2023/09/17 09:28:01;;;;;;;11.55;5.60;;;;;;;19.56;62.90;99914.94;5006512;28;20089;-46
2023/09/17 09:30:29;;;;;;;12.88;6.13;;;;;;;19.52;63.07;99920.31;5007160;28;20052;-50
2023/09/17 09:32:56;;;;;;;9.80;6.10;;;;;;;19.46;62.83;99915.31;5003164;28;20060;-49
2023/09/17 09:35:25;;;;;;;10.88;5.72;;;;;;;19.40;62.35;99912.94;5007287;28;20049;-49
2023/09/17 09:37:53;;;;;;;12.70;5.85;;;;;;;19.35;63.06;99913.13;5006969;28;20046;-48
2023/09/17 09:40:21;;;;;;;11.65;6.38;;;;;;;19.39;62.98;99903.38;5008742;28;20038;-49
2023/09/17 09:42:48;;;;;;;10.55;6.43;;;;;;;19.44;62.94;99900.53;5007370;28;20057;-48
2023/09/17 09:45:16;;;;;;;11.13;5.93;;;;;;;19.44;63.08;99896.13;5007868;28;20134;-46
2023/09/17 09:47:51;;;;;;;8.57;5.88;;;;;;;19.38;62.90;99901.63;5008154;28;20487;-50
2023/09/17 09:52:59;;;;;;;9.43;5.60;;;;;;;19.30;62.95;99882.72;5093791;27;20750;-56
2023/09/17 09:55:27;;;;;;;8.70;5.68;;;;;;;19.31;62.65;99869.53;5034437;28;20053;-51
2023/09/17 09:57:55;;;;;;;13.48;6.25;;;;;;;19.38;63.26;99870.13;5060623;28;20041;-48
2023/09/17 10:00:26;;;;;;;8.90;5.90;;;;;;;19.45;63.22;99855.81;5047088;28;20095;-49
2023/09/17 10:02:54;;;;;;;11.45;5.65;;;;;;;19.50;62.65;99842.50;5049058;28;20064;-48
2023/09/17 10:05:39;;;;;;;10.38;5.95;;;;;;;19.52;62.55;99827.50;5050231;28;20058;-48
2023/09/17 10:08:08;;;;;;;9.55;5.20;;;;;;;19.60;62.56;99835.06;5040140;28;20053;-52
2023/09/17 10:10:37;;;;;;;12.23;5.35;;;;;;;19.70;62.61;99828.50;5039265;28;20120;-48
2023/09/17 10:13:08;;;;;;;10.43;5.25;;;;;;;19.84;62.43;99819.13;5038079;28;20064;-47
2023/09/17 10:15:37;;;;;;;10.02;5.10;;;;;;;19.98;62.29;99813.25;5037973;28;20064;-47
2023/09/17 10:18:06;;;;;;;9.13;5.22;;;;;;;20.07;62.14;99810.25;5038766;28;20084;-51
2023/09/17 10:20:34;;;;;;;9.50;5.55;;;;;;;20.12;61.38;99804.75;5037376;28;20055;-52
2023/09/17 10:23:03;;;;;;;8.43;5.25;;;;;;;20.18;61.28;99812.34;5040354;28;20051;-48
2023/09/17 10:25:32;;;;;;;10.27;5.97;;;;;;;20.22;61.20;99819.16;5038759;28;20143;-48
2023/09/17 10:28:01;;;;;;;8.80;4.93;;;;;;;20.16;61.43;99822.06;5051530;28;20049;-54
2023/09/17 10:30:30;;;;;;;7.15;4.97;;;;;;;20.13;61.09;99820.44;5049824;28;20040;-50
2023/09/17 10:32:59;;;;;;;13.55;5.85;;;;;;;20.14;61.01;99826.56;5044441;28;20144;-49
2023/09/17 10:35:28;;;;;;;7.82;4.70;;;;;;;20.12;61.05;99824.00;5022164;28;20052;-47
2023/09/17 10:37:58;;;;;;;10.43;6.00;;;;;;;20.12;61.05;99812.63;5039201;28;20072;-49
2023/09/17 10:40:26;;;;;;;8.80;4.93;;;;;;;20.17;60.63;99815.91;5039191;28;20057;-48
2023/09/17 10:42:55;;;;;;;8.10;4.75;;;;;;;20.29;61.01;99810.06;5057584;28;20444;-50
2023/09/17 10:45:25;;;;;;;10.73;5.53;;;;;;;20.35;60.99;99813.31;5047700;28;20045;-53
2023/09/17 10:47:57;;;;;;;10.25;5.50;;;;;;;20.40;61.06;99809.56;5049499;28;20048;-48
2023/09/17 10:50:27;;;;;;;10.02;8.50;;;;;;;20.38;60.90;99808.78;5054376;28;20049;-48
2023/09/17 10:52:54;;;;;;;10.05;5.93;;;;;;;20.48;61.31;99817.09;5032828;28;20044;-46
2023/09/17 10:55:22;;;;;;;10.10;6.10;;;;;;;20.49;61.27;99816.16;5056661;28;20870;-50
2023/09/17 10:58:03;;;;;;;10.55;5.90;;;;;;;20.38;61.03;99811.41;5041405;28;20064;-48
2023/09/17 11:00:33;;;;;;;10.85;6.20;;;;;;;20.41;61.22;99807.78;5053707;28;20048;-44
2023/09/17 11:03:05;;;;;;;11.60;5.70;;;;;;;20.36;60.84;99805.38;5036602;28;20099;-48
2023/09/17 11:05:33;;;;;;;8.60;5.30;;;;;;;20.36;61.19;99802.75;5035687;28;20052;-50
2023/09/17 11:08:03;;;;;;;8.73;6.13;;;;;;;20.39;60.61;99793.84;5042168;28;20049;-48
2023/09/17 11:10:31;;;;;;;9.05;5.35;;;;;;;20.43;60.74;99790.13;5023163;28;20129;-51
2023/09/17 11:12:59;;;;;;;10.60;5.63;;;;;;;20.45;60.99;99776.91;5045960;28;20072;-48
2023/09/17 11:15:26;;;;;;;12.23;6.10;;;;;;;20.42;61.45;99783.19;5030347;28;20132;-48
2023/09/17 11:17:58;;;;;;;13.85;5.85;;;;;;;20.44;61.61;99781.34;5030061;28;20052;-47
2023/09/17 11:20:25;;;;;;;8.45;5.10;;;;;;;20.42;61.75;99770.03;5037305;28;20049;-45
2023/09/17 11:22:52;;;;;;;10.20;5.28;;;;;;;20.41;61.33;99781.50;5027838;28;20075;-50
2023/09/17 11:25:34;;;;;;;10.10;6.35;;;;;;;20.35;61.52;99772.13;5039266;28;20103;-42
2023/09/17 11:28:09;;;;;;;9.43;5.55;;;;;;;20.37;61.84;99769.41;5044311;28;20046;-51